createdAt,value
2019-05-09T00:01:16.076Z,13.30
2019-05-09T00:03:45.620Z,13.10
2019-05-09T00:06:15.169Z,13.10
2019-05-09T00:08:44.708Z,13.10
2019-05-09T00:11:14.896Z,13.00
2019-05-09T00:13:44.555Z,13.10
2019-05-09T00:16:14.636Z,13.00
2019-05-09T00:18:44.390Z,12.90
2019-05-09T00:21:26.421Z,12.90
2019-05-09T00:23:55.963Z,12.90
2019-05-09T00:26:25.484Z,12.90
2019-05-09T00:28:59.320Z,12.80
2019-05-09T00:31:40.356Z,12.70
2019-05-09T00:34:14.379Z,12.80
2019-05-09T00:36:44.799Z,12.90
2019-05-09T00:39:14.340Z,12.80
2019-05-09T00:41:43.872Z,12.80
2019-05-09T00:44:23.287Z,12.80
2019-05-09T00:47:04.255Z,12.80
2019-05-09T00:49:34.202Z,12.70
2019-05-09T00:52:05.201Z,12.70
2019-05-09T00:54:34.757Z,12.70
2019-05-09T00:57:04.321Z,12.70
2019-05-09T00:59:33.914Z,12.70
2019-05-09T01:02:04.079Z,12.70
2019-05-09T01:04:34.861Z,12.70
2019-05-09T03:11:41.509Z,12.50
2019-05-09T03:14:11.058Z,12.50
2019-05-09T03:16:40.611Z,12.40
2019-05-09T03:19:10.168Z,12.40
2019-05-09T03:21:45.758Z,12.50
2019-05-09T03:24:18.260Z,12.50
2019-05-09T03:26:50.542Z,12.60
2019-05-09T03:29:31.081Z,12.60
2019-05-09T03:32:00.725Z,12.60
2019-05-09T03:34:30.427Z,12.50
2019-05-09T03:37:00.989Z,12.50
2019-05-09T03:39:30.611Z,12.50
2019-05-09T03:42:00.128Z,12.40
2019-05-09T03:44:29.672Z,12.40
2019-05-09T03:47:09.010Z,12.40
2019-05-09T03:49:38.577Z,12.30
2019-05-09T03:52:08.150Z,12.30
2019-05-09T03:54:37.710Z,12.40
2019-05-09T03:57:18.555Z,12.30
2019-05-09T03:59:48.204Z,12.30
2019-05-09T04:02:17.990Z,12.30
2019-05-09T04:04:51.164Z,12.30
2019-05-09T04:07:20.902Z,12.30
2019-05-09T04:09:50.456Z,12.30
2019-05-09T04:12:20.073Z,12.40
2019-05-09T04:14:49.725Z,12.40
2019-05-09T04:17:19.478Z,12.40
2019-05-09T04:19:49.056Z,12.40
2019-05-09T04:22:18.611Z,12.40
2019-05-09T04:24:48.790Z,12.40
2019-05-09T04:27:22.533Z,12.30
2019-05-09T04:29:52.100Z,12.30
2019-05-09T04:32:21.677Z,12.40
2019-05-09T04:34:51.269Z,12.50
2019-05-09T04:37:21.602Z,12.50
2019-05-09T04:39:53.915Z,12.70
2019-05-09T04:42:22.388Z,12.70
2019-05-09T04:45:10.214Z,12.60
2019-05-09T04:47:43.493Z,12.70
2019-05-09T04:50:15.396Z,12.80
2019-05-09T04:52:43.733Z,12.90
2019-05-09T04:55:14.584Z,12.90
2019-05-09T04:57:44.156Z,13.00
2019-05-09T05:00:18.399Z,13.10
2019-05-09T05:02:50.144Z,13.20
2019-05-09T05:05:22.659Z,13.10
2019-05-09T05:07:52.199Z,13.20
2019-05-09T05:10:21.753Z,13.20
2019-05-09T05:12:51.430Z,13.30
2019-05-09T05:15:20.995Z,13.20
2019-05-09T05:17:50.784Z,13.30
2019-05-09T05:20:23.345Z,13.20
2019-05-09T05:22:59.364Z,13.20
2019-05-09T05:25:29.900Z,13.30
2019-05-09T05:27:59.480Z,13.20
2019-05-09T05:30:29.040Z,13.30
2019-05-09T05:33:02.341Z,13.20
2019-05-09T05:36:03.421Z,13.20
2019-05-09T05:38:33.065Z,13.20
2019-05-09T05:41:02.669Z,13.10
2019-05-09T05:43:43.319Z,13.10
2019-05-09T05:46:20.649Z,13.20
2019-05-09T05:48:51.130Z,13.40
2019-05-09T05:51:20.684Z,13.50
2019-05-09T05:53:50.337Z,13.40
2019-05-09T05:56:19.910Z,13.40
2019-05-09T05:58:49.488Z,13.50
2019-05-09T06:01:19.065Z,13.60
2019-05-09T06:03:48.605Z,13.60
2019-05-09T06:06:18.196Z,13.60
2019-05-09T06:08:48.526Z,13.60
2019-05-09T06:11:18.370Z,13.60
2019-05-09T06:13:56.447Z,13.50
2019-05-09T06:16:22.238Z,13.60
2019-05-09T06:18:50.613Z,13.50
2019-05-09T06:21:20.365Z,13.70
2019-05-09T06:23:51.415Z,13.50
2019-05-09T06:26:21.029Z,13.50
2019-05-09T06:28:50.637Z,13.50
2019-05-09T06:31:20.485Z,13.60
2019-05-09T06:33:53.508Z,13.70
2019-05-09T06:36:22.851Z,13.70
2019-05-09T06:38:52.565Z,13.80
2019-05-09T06:41:22.203Z,14.00
2019-05-09T06:44:11.050Z,14.00
2019-05-09T06:46:42.107Z,14.00
2019-05-09T06:49:24.372Z,14.00
2019-05-09T06:51:47.611Z,14.00
2019-05-09T06:54:17.564Z,13.90
2019-05-09T06:56:47.618Z,13.90
2019-05-09T06:59:19.073Z,13.90
2019-05-09T07:02:08.216Z,14.10
2019-05-09T07:04:41.709Z,14.20
2019-05-09T07:07:17.507Z,14.30
2019-05-09T07:09:50.569Z,14.30
2019-05-09T07:12:20.149Z,14.20
2019-05-09T07:14:49.734Z,14.30
2019-05-09T07:17:19.437Z,14.20
2019-05-09T07:19:49.242Z,14.50
2019-05-09T07:22:28.055Z,14.40
2019-05-09T07:25:12.789Z,14.50
2019-05-09T07:27:42.505Z,14.40
2019-05-09T07:30:32.033Z,14.20
2019-05-09T07:33:13.161Z,14.40
2019-05-09T07:35:42.704Z,14.60
2019-05-09T07:38:12.290Z,14.60
2019-05-09T07:40:41.853Z,14.50
2019-05-09T07:43:11.441Z,14.50
2019-05-09T07:46:00.126Z,14.70
2019-05-09T07:48:29.735Z,14.60
2019-05-09T07:50:59.813Z,14.60
2019-05-09T07:53:29.584Z,14.60
2019-05-09T07:56:00.335Z,14.60
2019-05-09T07:58:29.875Z,14.40
2019-05-09T08:01:01.638Z,14.40
2019-05-09T08:03:30.813Z,14.20
2019-05-09T08:06:00.360Z,14.30
2019-05-09T08:08:29.937Z,14.40
2019-05-09T08:10:59.473Z,14.30
2019-05-09T08:13:29.117Z,14.50
2019-05-09T08:15:58.911Z,14.60
2019-05-09T08:18:28.509Z,14.70
2019-05-09T08:20:58.045Z,14.80
2019-05-09T08:23:27.611Z,14.90
2019-05-09T08:25:57.925Z,15.10
2019-05-09T08:28:28.143Z,14.90
2019-05-09T08:30:58.560Z,15.00
2019-05-09T08:33:28.833Z,15.20
2019-05-09T08:35:58.678Z,15.10
2019-05-09T08:38:28.598Z,14.90
2019-05-09T08:41:09.123Z,14.90
2019-05-09T08:43:40.417Z,15.10
2019-05-09T08:46:11.114Z,15.40
2019-05-09T08:48:40.900Z,15.40
2019-05-09T08:51:21.450Z,15.60
2019-05-09T08:53:51.028Z,15.70
2019-05-09T08:56:20.635Z,15.50
2019-05-09T08:58:50.207Z,15.40
2019-05-09T09:01:31.034Z,15.50
2019-05-09T09:03:51.138Z,15.80
2019-05-09T09:06:20.802Z,15.60
2019-05-09T09:08:50.408Z,15.70
2019-05-09T09:11:19.955Z,15.80
2019-05-09T09:13:49.586Z,15.80
2019-05-09T09:16:22.428Z,16.00
2019-05-09T09:18:50.438Z,16.00
2019-05-09T09:21:20.015Z,16.30
2019-05-09T09:23:50.852Z,16.40
2019-05-09T09:26:20.633Z,16.40
2019-05-09T09:28:50.256Z,16.40
2019-05-09T09:31:19.843Z,16.50
2019-05-09T09:33:49.393Z,16.70
2019-05-09T09:36:18.958Z,16.80
2019-05-09T09:38:48.573Z,17.00
2019-05-09T09:41:18.353Z,17.10
2019-05-09T09:43:48.060Z,17.40
2019-05-09T09:46:18.270Z,17.70
2019-05-09T09:48:48.278Z,17.80
2019-05-09T09:51:18.778Z,18.10
2019-05-09T09:53:49.030Z,18.40
2019-05-09T09:56:22.332Z,18.00
2019-05-09T09:59:04.700Z,17.10
2019-05-09T10:01:38.536Z,16.70
2019-05-09T10:04:19.795Z,16.50
2019-05-09T10:06:43.087Z,16.60
2019-05-09T10:09:12.801Z,16.80
2019-05-09T10:11:42.514Z,17.00
2019-05-09T10:14:15.434Z,16.70
2019-05-09T10:17:03.139Z,16.60
2019-05-09T10:19:41.338Z,16.80
2019-05-09T10:22:14.365Z,16.90
2019-05-09T10:24:44.075Z,16.90
2019-05-09T10:27:14.422Z,16.80
2019-05-09T10:29:44.146Z,16.80
2019-05-09T10:32:14.637Z,17.00
2019-05-09T10:34:44.472Z,17.20
2019-05-09T10:37:14.219Z,17.30
2019-05-09T10:39:43.849Z,17.40
2019-05-09T10:42:37.737Z,17.30
2019-05-09T10:45:34.665Z,17.30
2019-05-09T10:48:04.391Z,17.00
2019-05-09T10:50:34.943Z,17.00
2019-05-09T10:53:07.819Z,16.90
2019-05-09T10:55:38.534Z,17.00
2019-05-09T10:58:08.281Z,17.10
2019-05-09T11:00:39.200Z,17.00
2019-05-09T11:03:09.428Z,16.80
2019-05-09T11:05:39.107Z,17.20
2019-05-09T11:08:08.825Z,17.10
2019-05-09T11:10:39.482Z,17.10
2019-05-09T11:13:09.573Z,17.40
2019-05-09T11:15:39.253Z,17.60
2019-05-09T11:18:08.900Z,17.80
2019-05-09T11:20:38.556Z,17.90
2019-05-09T11:23:08.389Z,18.10
2019-05-09T11:25:38.246Z,18.20
2019-05-09T11:28:12.712Z,18.80
2019-05-09T11:30:40.602Z,19.30
2019-05-09T11:33:10.221Z,19.30
2019-05-09T11:35:39.857Z,19.40
2019-05-09T11:38:09.466Z,19.70
2019-05-09T11:40:39.072Z,20.00
2019-05-09T11:43:08.693Z,20.30
2019-05-09T11:45:38.906Z,20.10
2019-05-09T11:48:08.664Z,19.60
2019-05-09T11:50:38.840Z,19.20
2019-05-09T11:53:08.912Z,19.40
2019-05-09T11:55:43.122Z,19.00
2019-05-09T11:58:10.932Z,18.70
2019-05-09T12:00:40.573Z,18.60
2019-05-09T12:03:10.181Z,18.20
2019-05-09T12:05:39.806Z,17.90
2019-05-09T12:08:09.596Z,17.00
2019-05-09T12:10:39.248Z,16.50
2019-05-09T12:13:08.866Z,16.30
2019-05-09T12:15:38.984Z,16.10
2019-05-09T12:18:11.487Z,15.90
2019-05-09T12:20:40.096Z,16.00
2019-05-09T12:23:09.741Z,16.10
2019-05-09T12:25:39.460Z,16.80
2019-05-09T12:28:09.162Z,17.10
2019-05-09T12:30:38.856Z,17.60
2019-05-09T12:33:08.754Z,17.70
2019-05-09T12:35:40.773Z,17.90
2019-05-09T12:38:10.488Z,18.10
2019-05-09T12:40:40.168Z,18.80
2019-05-09T12:43:10.010Z,19.20
2019-05-09T12:45:39.932Z,19.50
2019-05-09T12:48:15.601Z,19.80
2019-05-09T12:50:48.852Z,18.40
2019-05-09T12:53:21.377Z,19.70
2019-05-09T12:55:59.737Z,20.60
2019-05-09T12:58:30.082Z,20.80
2019-05-09T13:01:00.226Z,20.70
2019-05-09T13:03:30.129Z,20.30
2019-05-09T13:05:59.853Z,19.80
2019-05-09T13:08:29.449Z,20.10
2019-05-09T13:11:02.325Z,20.20
2019-05-09T13:13:32.348Z,20.10
2019-05-09T13:16:17.538Z,20.80
2019-05-09T13:19:06.700Z,20.80
2019-05-09T13:21:38.925Z,21.30
2019-05-09T13:24:08.541Z,21.60
2019-05-09T13:26:38.825Z,21.30
2019-05-09T13:29:08.596Z,20.90
2019-05-09T13:31:39.719Z,20.80
2019-05-09T13:34:09.629Z,20.80
2019-05-09T13:36:39.223Z,20.10
2019-05-09T13:39:10.633Z,19.30
2019-05-09T13:41:40.527Z,18.60
2019-05-09T13:44:13.522Z,18.50
2019-05-09T13:46:41.429Z,18.70
2019-05-09T13:49:15.199Z,19.30
2019-05-09T13:51:50.843Z,19.70
2019-05-09T13:54:13.794Z,19.70
2019-05-09T13:56:43.498Z,20.40
2019-05-09T13:59:13.097Z,20.20
2019-05-09T14:01:42.819Z,20.50
2019-05-09T14:04:12.489Z,20.80
2019-05-09T14:06:42.164Z,21.40
2019-05-09T14:09:11.788Z,21.70
2019-05-09T14:11:41.437Z,21.60
2019-05-09T14:14:11.178Z,20.80
2019-05-09T14:16:41.976Z,20.60
2019-05-09T14:19:29.875Z,20.60
2019-05-09T14:21:43.227Z,20.80
2019-05-09T14:24:16.629Z,20.70
2019-05-09T14:26:44.128Z,19.60
2019-05-09T14:29:13.829Z,18.80
2019-05-09T14:31:44.046Z,18.30
2019-05-09T14:34:13.671Z,19.40
2019-05-09T14:36:45.766Z,20.40
2019-05-09T14:39:14.729Z,21.20
2019-05-09T14:41:47.076Z,21.50
2019-05-09T14:44:17.946Z,21.80
2019-05-09T14:46:48.211Z,21.20
2019-05-09T14:49:18.127Z,21.20
2019-05-09T14:51:50.081Z,21.30
2019-05-09T14:54:19.262Z,21.70
2019-05-09T14:56:48.939Z,21.90
2019-05-09T14:59:18.817Z,23.10
2019-05-09T15:01:49.484Z,23.60
2019-05-09T15:04:19.715Z,24.10
2019-05-09T15:06:49.301Z,24.70
2019-05-09T15:09:18.869Z,25.00
2019-05-09T15:11:48.748Z,25.00
2019-05-09T15:14:18.513Z,24.70
2019-05-09T15:16:48.745Z,23.70
2019-05-09T15:19:18.522Z,22.40
2019-05-09T15:21:48.954Z,21.70
2019-05-09T15:24:19.419Z,21.60
2019-05-09T15:26:49.328Z,22.00
2019-05-09T15:29:18.939Z,21.90
2019-05-09T15:31:54.259Z,21.50
2019-05-09T15:34:19.878Z,21.20
2019-05-09T15:36:49.528Z,20.70
2019-05-09T15:39:19.068Z,20.10
2019-05-09T15:41:48.711Z,19.80
2019-05-09T15:44:18.816Z,19.60
2019-05-09T15:46:52.921Z,19.50
2019-05-09T15:49:23.470Z,19.40
2019-05-09T15:51:53.065Z,19.40
2019-05-09T15:54:22.646Z,19.50
2019-05-09T15:56:52.267Z,19.60
2019-05-09T15:59:21.996Z,19.80
2019-05-09T16:01:51.654Z,20.00
2019-05-09T16:04:21.228Z,19.90
2019-05-09T16:06:51.845Z,19.60
2019-05-09T16:09:21.955Z,19.40
2019-05-09T16:11:51.524Z,19.30
2019-05-09T16:14:21.087Z,19.00
2019-05-09T16:16:50.636Z,18.90
2019-05-09T16:19:20.199Z,18.80
2019-05-09T16:21:49.769Z,18.70
2019-05-09T16:24:19.353Z,18.70
2019-05-09T16:26:49.153Z,18.60
2019-05-09T16:29:18.809Z,18.60
2019-05-09T16:31:48.507Z,18.60
2019-05-09T16:34:18.098Z,18.60
2019-05-09T16:36:48.175Z,18.60
2019-05-09T16:39:18.240Z,18.40
2019-05-09T16:41:48.621Z,18.50
2019-05-09T16:44:19.357Z,18.50
2019-05-09T16:46:49.303Z,18.60
2019-05-09T16:49:20.025Z,18.60
2019-05-09T16:51:49.873Z,18.60
2019-05-09T16:54:20.133Z,18.50
2019-05-09T16:56:49.745Z,18.40
2019-05-09T16:59:19.463Z,18.50
2019-05-09T17:01:50.732Z,18.50
2019-05-09T17:04:20.504Z,18.40
2019-05-09T17:06:50.133Z,18.40
2019-05-09T17:09:19.762Z,18.30
2019-05-09T17:11:49.400Z,18.20
2019-05-09T17:14:19.484Z,18.10
2019-05-09T17:16:52.569Z,17.90
2019-05-09T17:19:20.549Z,17.70
2019-05-09T17:21:58.694Z,17.50
2019-05-09T17:24:29.902Z,17.50
2019-05-09T17:26:59.967Z,17.50
2019-05-09T17:29:29.649Z,17.40
2019-05-09T17:31:59.304Z,17.40
2019-05-09T17:34:30.911Z,17.30
2019-05-09T17:37:00.563Z,17.30
2019-05-09T17:39:30.154Z,17.20
2019-05-09T17:41:59.758Z,17.20
2019-05-09T17:44:29.389Z,17.20
2019-05-09T17:46:58.954Z,17.30
2019-05-09T17:49:28.617Z,17.20
2019-05-09T17:51:58.497Z,17.10
2019-05-09T17:54:28.887Z,17.00
2019-05-09T17:56:59.701Z,16.90
2019-05-09T17:59:29.507Z,16.80
2019-05-09T18:02:00.164Z,16.70
2019-05-09T18:04:29.764Z,16.60
2019-05-09T18:06:59.417Z,16.50
2019-05-09T18:09:29.133Z,16.40
2019-05-09T18:11:58.729Z,16.40
2019-05-09T18:14:28.394Z,16.30
2019-05-09T18:16:59.136Z,16.20
2019-05-09T18:19:29.441Z,16.10
2019-05-09T18:21:59.434Z,16.00
2019-05-09T18:24:29.233Z,16.00
2019-05-09T18:26:58.941Z,16.00
2019-05-09T18:29:29.652Z,15.80
2019-05-09T18:32:07.724Z,15.80
2019-05-09T18:34:38.064Z,15.80
2019-05-09T18:37:08.194Z,15.70
2019-05-09T18:39:38.976Z,15.70
2019-05-09T18:42:08.874Z,15.60
2019-05-09T18:44:38.826Z,15.50
2019-05-09T18:47:08.531Z,15.40
2019-05-09T18:49:38.234Z,15.40
2019-05-09T18:52:07.847Z,15.30
2019-05-09T18:54:38.864Z,15.20
2019-05-09T18:57:08.496Z,15.20
2019-05-09T18:59:39.116Z,15.10
2019-05-09T19:02:08.873Z,15.10
2019-05-09T19:04:43.213Z,15.00
2019-05-09T19:07:22.459Z,15.00
2019-05-09T19:09:46.426Z,14.90
2019-05-09T19:12:16.169Z,14.90
2019-05-09T19:14:47.990Z,14.80
2019-05-09T19:17:41.439Z,14.80
2019-05-09T19:20:24.393Z,14.70
2019-05-09T19:22:54.031Z,14.70
2019-05-09T19:25:23.726Z,14.60
2019-05-09T19:27:53.317Z,14.60
2019-05-09T19:30:22.979Z,14.60
2019-05-09T19:32:52.691Z,14.60
2019-05-09T19:35:22.476Z,14.60
2019-05-09T19:37:52.224Z,14.60
2019-05-09T19:40:23.103Z,14.50
2019-05-09T19:42:52.767Z,14.60
2019-05-09T19:45:27.050Z,14.50
2019-05-09T19:48:00.058Z,14.50
2019-05-09T19:50:29.729Z,14.50
2019-05-09T19:52:59.390Z,14.50
2019-05-09T19:55:28.982Z,14.50
2019-05-09T19:57:58.623Z,14.40
2019-05-09T20:00:28.323Z,14.30
2019-05-09T20:02:57.916Z,14.20
2019-05-09T20:05:29.552Z,14.20
2019-05-09T20:07:59.243Z,14.20
2019-05-09T20:10:46.797Z,14.20
2019-05-09T20:13:32.617Z,14.20
2019-05-09T20:16:02.612Z,14.20
2019-05-09T20:18:32.274Z,14.20
2019-05-09T20:21:01.937Z,14.20
2019-05-09T20:23:31.531Z,14.10
2019-05-09T20:26:01.239Z,14.10
2019-05-09T20:28:31.011Z,14.10
2019-05-09T20:31:02.534Z,14.10
2019-05-09T20:33:32.188Z,14.00
2019-05-09T20:36:01.797Z,14.10
2019-05-09T20:38:32.771Z,14.00
2019-05-09T20:41:02.664Z,14.10
2019-05-09T20:43:32.476Z,14.10
2019-05-09T20:46:02.200Z,14.10
2019-05-09T20:48:32.005Z,14.00
2019-05-09T20:51:01.724Z,14.00
2019-05-09T20:53:31.523Z,14.00
2019-05-09T20:56:01.330Z,14.00
2019-05-09T20:58:31.173Z,14.00
2019-05-09T21:01:01.394Z,14.00
2019-05-09T21:03:31.325Z,13.90
2019-05-09T21:06:01.037Z,13.90
2019-05-09T21:08:30.764Z,13.90
2019-05-09T21:11:00.467Z,13.80
2019-05-09T21:13:30.311Z,13.80
2019-05-09T21:16:00.036Z,13.70
2019-05-09T21:18:29.852Z,13.70
2019-05-09T21:21:00.594Z,13.60
2019-05-09T21:23:30.309Z,13.50
2019-05-09T21:26:00.053Z,13.40
2019-05-09T21:28:29.763Z,13.40
2019-05-09T21:30:59.529Z,13.40
2019-05-09T21:33:29.313Z,13.40
2019-05-09T21:35:58.925Z,13.30
2019-05-09T21:38:28.477Z,13.20
2019-05-09T21:40:58.086Z,13.10
2019-05-09T21:43:27.657Z,13.10
2019-05-09T21:45:57.237Z,13.10
2019-05-09T21:48:26.809Z,13.10
2019-05-09T21:50:56.473Z,13.10
2019-05-09T21:53:39.899Z,13.00
2019-05-09T21:55:57.301Z,13.00
2019-05-09T21:58:26.908Z,12.90
2019-05-09T22:00:58.185Z,12.70
2019-05-09T22:03:28.105Z,12.60
2019-05-09T22:05:57.749Z,12.70
2019-05-09T22:08:27.317Z,12.80
2019-05-09T22:10:56.906Z,12.70
2019-05-09T22:13:26.438Z,12.60
2019-05-09T22:15:56.026Z,12.50
2019-05-09T22:18:25.549Z,12.30
2019-05-09T22:20:55.123Z,12.30
2019-05-09T22:23:24.652Z,12.30
2019-05-09T22:25:54.275Z,12.30
2019-05-09T22:28:23.839Z,12.20
2019-05-09T22:30:53.421Z,12.00
2019-05-09T22:33:24.037Z,11.80
2019-05-09T22:35:54.697Z,11.70
2019-05-09T22:38:24.232Z,11.60
2019-05-09T22:40:53.755Z,11.60
2019-05-09T22:43:23.389Z,11.70
2019-05-09T22:45:53.027Z,11.90
2019-05-09T22:48:22.603Z,12.00
2019-05-09T22:50:52.127Z,12.00
2019-05-09T22:53:21.743Z,12.00
2019-05-09T22:55:51.265Z,12.00
2019-05-09T22:58:20.863Z,11.90
2019-05-09T23:00:50.427Z,11.80
2019-05-09T23:03:21.037Z,11.80
2019-05-09T23:05:51.091Z,11.80
2019-05-09T23:08:20.665Z,11.80
2019-05-09T23:10:53.412Z,11.70
2019-05-09T23:19:07.622Z,11.60
2019-05-09T23:21:37.233Z,11.50
2019-05-09T23:24:26.487Z,11.40
2019-05-09T23:26:46.539Z,11.40
2019-05-09T23:29:16.199Z,11.40
2019-05-09T23:31:51.305Z,11.40
2019-05-09T23:34:20.972Z,11.40
2019-05-09T23:36:50.581Z,11.40
2019-05-09T23:39:25.441Z,11.40
2019-05-09T23:41:55.164Z,11.30
2019-05-09T23:44:24.811Z,11.30
2019-05-09T23:46:54.397Z,11.30
2019-05-09T23:49:24.096Z,11.30
2019-05-09T23:51:53.748Z,11.30
2019-05-09T23:54:46.581Z,11.20
2019-05-09T23:57:31.007Z,11.10
